createdAt,value
2018-07-02T00:00:20.039Z,12.72
2018-07-02T00:02:48.674Z,12.84
2018-07-02T00:05:17.304Z,12.83
2018-07-02T00:07:45.986Z,12.82
2018-07-02T00:10:14.649Z,12.74
2018-07-02T00:12:43.277Z,12.68
2018-07-02T00:15:11.857Z,12.76
2018-07-02T00:17:40.449Z,12.71
2018-07-02T00:20:09.146Z,12.61
2018-07-02T00:22:37.794Z,12.50
2018-07-02T00:25:06.444Z,12.49
2018-07-02T00:27:35.067Z,12.45
2018-07-02T00:30:03.741Z,12.36
2018-07-02T00:32:33.197Z,12.29
2018-07-02T00:35:01.835Z,12.23
2018-07-02T00:37:30.959Z,12.15
2018-07-02T00:39:59.589Z,12.08
2018-07-02T00:42:28.199Z,11.99
2018-07-02T00:44:56.784Z,11.97
2018-07-02T00:47:25.428Z,11.94
2018-07-02T00:49:54.054Z,11.95
2018-07-02T00:52:22.672Z,11.90
2018-07-02T00:54:51.302Z,11.86
2018-07-02T00:57:19.946Z,11.79
2018-07-02T00:59:48.525Z,11.75
2018-07-02T01:02:17.154Z,11.70
2018-07-02T01:04:45.785Z,11.66
2018-07-02T01:07:14.573Z,11.61
2018-07-02T01:09:43.181Z,11.57
2018-07-02T01:12:11.801Z,11.53
2018-07-02T01:14:40.393Z,11.52
2018-07-02T01:17:08.996Z,11.52
2018-07-02T01:19:37.580Z,11.48
2018-07-02T01:22:06.202Z,11.44
2018-07-02T01:24:35.385Z,11.52
2018-07-02T01:27:03.978Z,11.48
2018-07-02T01:29:32.596Z,11.43
2018-07-02T01:32:01.192Z,11.40
2018-07-02T01:34:29.801Z,11.40
2018-07-02T01:36:58.458Z,11.41
2018-07-02T01:39:27.092Z,11.43
2018-07-02T01:41:55.751Z,11.41
2018-07-02T01:44:24.353Z,11.49
2018-07-02T01:46:52.977Z,11.48
2018-07-02T01:49:21.628Z,11.57
2018-07-02T01:51:50.213Z,11.62
2018-07-02T01:54:18.811Z,11.59
2018-07-02T01:56:47.423Z,11.54
2018-07-02T01:59:16.059Z,11.58
2018-07-02T02:01:44.706Z,11.60
2018-07-02T02:04:13.301Z,11.65
2018-07-02T02:06:41.914Z,11.72
2018-07-02T02:09:11.561Z,11.70
2018-07-02T02:11:40.886Z,11.68
2018-07-02T02:14:09.499Z,11.72
2018-07-02T02:16:39.314Z,11.74
2018-07-02T02:19:08.368Z,11.63
2018-07-02T02:21:37.052Z,11.52
2018-07-02T02:24:05.773Z,11.36
2018-07-02T02:26:34.376Z,11.31
2018-07-02T02:29:03.023Z,11.28
2018-07-02T02:31:31.653Z,11.26
2018-07-02T02:34:00.305Z,11.25
2018-07-02T02:36:28.905Z,11.25
2018-07-02T02:38:57.558Z,11.28
2018-07-02T02:41:26.163Z,11.26
2018-07-02T02:43:54.735Z,11.30
2018-07-02T02:46:23.342Z,11.22
2018-07-02T02:48:51.953Z,11.21
2018-07-02T02:51:20.570Z,11.19
2018-07-02T02:53:49.200Z,11.18
2018-07-02T02:56:17.807Z,11.18
2018-07-02T02:58:46.404Z,11.16
2018-07-02T03:01:15.002Z,11.08
2018-07-02T03:03:43.958Z,11.02
2018-07-02T03:06:12.588Z,11.05
2018-07-02T03:08:41.205Z,11.10
2018-07-02T03:11:09.795Z,11.06
2018-07-02T03:13:38.371Z,11.04
2018-07-02T03:16:06.957Z,11.03
2018-07-02T03:18:35.543Z,11.11
2018-07-02T03:21:04.228Z,11.13
2018-07-02T03:23:32.877Z,11.15
2018-07-02T03:26:01.463Z,11.20
2018-07-02T03:28:30.162Z,11.22
2018-07-02T03:30:58.750Z,11.24
2018-07-02T03:33:27.358Z,11.26
2018-07-02T03:35:55.929Z,11.29
2018-07-02T03:38:24.559Z,11.34
2018-07-02T03:40:53.178Z,11.40
2018-07-02T03:43:21.788Z,11.46
2018-07-02T03:45:50.612Z,11.54
2018-07-02T03:48:19.226Z,11.64
2018-07-02T03:50:48.757Z,11.78
2018-07-02T03:53:17.430Z,11.99
2018-07-02T03:55:46.065Z,12.26
2018-07-02T04:11:05.866Z,12.32
2018-07-02T04:13:35.046Z,12.24
2018-07-02T04:16:03.982Z,12.19
2018-07-02T04:18:32.665Z,12.21
2018-07-02T04:21:01.316Z,12.30
2018-07-02T04:23:29.945Z,12.39
2018-07-02T04:25:58.625Z,12.48
2018-07-02T04:28:27.171Z,12.57
2018-07-02T04:30:55.830Z,12.71
2018-07-02T04:33:25.416Z,12.86
2018-07-02T04:35:54.009Z,12.96
2018-07-02T04:38:22.610Z,13.05
2018-07-02T04:40:52.153Z,13.11
2018-07-02T04:43:20.761Z,13.14
2018-07-02T04:45:49.349Z,13.25
2018-07-02T04:48:17.993Z,13.35
2018-07-02T04:50:46.655Z,13.39
2018-07-02T04:53:16.098Z,13.51
2018-07-02T04:55:44.719Z,13.54
2018-07-02T04:58:13.383Z,13.61
2018-07-02T05:00:41.971Z,13.69
2018-07-02T05:03:10.561Z,13.86
2018-07-02T05:05:39.169Z,13.88
2018-07-02T05:08:07.787Z,13.99
2018-07-02T05:10:36.418Z,14.06
2018-07-02T05:13:05.074Z,14.04
2018-07-02T05:15:33.682Z,14.08
2018-07-02T05:18:02.284Z,14.19
2018-07-02T05:20:30.877Z,14.23
2018-07-02T05:22:59.447Z,14.27
2018-07-02T05:25:28.029Z,14.33
2018-07-02T05:27:57.780Z,14.41
2018-07-02T05:30:26.406Z,14.47
2018-07-02T05:32:55.620Z,14.57
2018-07-02T05:35:24.281Z,14.69
2018-07-02T05:37:52.886Z,14.80
2018-07-02T05:40:21.493Z,14.86
2018-07-02T05:42:50.133Z,14.84
2018-07-02T05:45:18.749Z,14.99
2018-07-02T05:47:47.376Z,15.02
2018-07-02T05:50:16.030Z,15.04
2018-07-02T05:52:44.659Z,15.16
2018-07-02T05:55:13.344Z,15.28
2018-07-02T05:57:42.019Z,15.39
2018-07-02T06:00:11.290Z,15.58
2018-07-02T06:02:39.863Z,15.63
2018-07-02T06:05:08.555Z,15.76
2018-07-02T06:07:37.206Z,15.83
2018-07-02T06:10:06.073Z,15.90
2018-07-02T06:12:34.652Z,16.07
2018-07-02T06:15:03.253Z,16.02
2018-07-02T06:17:31.806Z,16.08
2018-07-02T06:20:01.710Z,16.27
2018-07-02T06:22:30.343Z,16.36
2018-07-02T06:24:59.131Z,16.53
2018-07-02T06:27:27.750Z,16.78
2018-07-02T06:29:56.298Z,16.75
2018-07-02T06:32:24.850Z,16.78
2018-07-02T06:34:53.422Z,17.00
2018-07-02T06:37:22.015Z,17.12
2018-07-02T06:39:50.590Z,17.07
2018-07-02T06:42:19.165Z,17.14
2018-07-02T06:44:47.742Z,17.23
2018-07-02T06:47:16.308Z,17.25
2018-07-02T06:49:44.868Z,17.47
2018-07-02T06:52:13.479Z,17.54
2018-07-02T06:54:42.034Z,17.63
2018-07-02T06:57:10.582Z,17.72
2018-07-02T06:59:39.166Z,17.85
2018-07-02T07:02:07.816Z,17.97
2018-07-02T07:04:36.396Z,17.99
2018-07-02T07:07:05.735Z,18.10
2018-07-02T07:09:34.325Z,18.16
2018-07-02T07:12:02.994Z,18.23
2018-07-02T07:14:31.578Z,18.25
2018-07-02T07:17:00.166Z,18.33
2018-07-02T07:19:28.765Z,18.43
2018-07-02T07:21:57.332Z,18.55
2018-07-02T07:24:25.933Z,18.58
2018-07-02T07:26:54.498Z,18.70
2018-07-02T07:29:23.046Z,18.84
2018-07-02T07:31:51.644Z,18.91
2018-07-02T07:34:20.198Z,19.07
2018-07-02T07:36:48.794Z,19.11
2018-07-02T07:39:17.347Z,19.10
2018-07-02T07:41:45.925Z,19.06
2018-07-02T07:44:14.509Z,19.19
2018-07-02T07:46:43.126Z,19.44
2018-07-02T07:49:12.405Z,19.41
2018-07-02T07:51:41.046Z,19.46
2018-07-02T07:54:10.007Z,19.46
2018-07-02T07:56:38.624Z,19.51
2018-07-02T07:59:07.336Z,19.61
2018-07-02T08:01:35.933Z,19.72
2018-07-02T08:04:04.696Z,19.83
2018-07-02T08:06:33.275Z,19.84
2018-07-02T08:09:01.898Z,19.99
2018-07-02T08:11:30.466Z,20.10
2018-07-02T08:13:59.035Z,20.03
2018-07-02T08:16:27.629Z,20.14
2018-07-02T08:18:56.283Z,20.21
2018-07-02T08:21:24.809Z,20.20
2018-07-02T08:23:53.390Z,20.29
2018-07-02T08:26:22.055Z,20.36
2018-07-02T08:28:50.724Z,20.39
2018-07-02T08:31:19.319Z,20.57
2018-07-02T08:33:47.995Z,20.55
2018-07-02T08:36:16.722Z,20.68
2018-07-02T08:38:45.307Z,20.67
2018-07-02T08:41:13.942Z,20.57
2018-07-02T08:43:42.521Z,20.54
2018-07-02T08:46:11.112Z,20.61
2018-07-02T08:48:40.617Z,20.82
2018-07-02T08:51:09.206Z,21.06
2018-07-02T08:53:37.781Z,21.09
2018-07-02T08:56:07.630Z,21.17
2018-07-02T08:58:36.193Z,21.05
2018-07-02T09:01:05.073Z,21.27
2018-07-02T09:03:33.661Z,21.29
2018-07-02T09:06:02.261Z,21.28
2018-07-02T09:08:30.849Z,21.18
2018-07-02T09:10:59.433Z,21.35
2018-07-02T09:13:28.002Z,21.42
2018-07-02T09:15:56.625Z,21.61
2018-07-02T09:18:25.194Z,21.74
2018-07-02T09:20:53.774Z,21.69
2018-07-02T09:23:22.353Z,21.68
2018-07-02T09:25:50.947Z,21.76
2018-07-02T09:28:19.518Z,21.71
2018-07-02T09:30:48.118Z,21.78
2018-07-02T09:33:16.790Z,21.86
2018-07-02T09:35:45.350Z,22.00
2018-07-02T09:38:13.951Z,21.96
2018-07-02T09:40:42.601Z,21.92
2018-07-02T09:43:11.190Z,22.03
2018-07-02T09:45:39.809Z,22.33
2018-07-02T09:48:09.334Z,22.30
2018-07-02T09:50:38.865Z,22.40
2018-07-02T09:53:07.615Z,22.26
2018-07-02T09:55:36.179Z,22.30
2018-07-02T09:58:04.783Z,22.43
2018-07-02T10:00:36.591Z,22.56
2018-07-02T10:03:06.818Z,22.64
2018-07-02T10:05:35.386Z,22.75
2018-07-02T10:08:04.008Z,22.70
2018-07-02T10:10:32.578Z,22.87
2018-07-02T10:13:01.174Z,22.66
2018-07-02T10:15:29.740Z,22.74
2018-07-02T10:17:58.601Z,22.80
2018-07-02T10:20:27.193Z,22.91
2018-07-02T10:22:55.764Z,22.98
2018-07-02T10:25:24.320Z,23.13
2018-07-02T10:27:52.910Z,23.18
2018-07-02T10:30:21.498Z,23.17
2018-07-02T10:32:50.045Z,23.22
2018-07-02T10:35:18.645Z,23.22
2018-07-02T10:37:47.266Z,23.22
2018-07-02T10:40:15.858Z,23.26
2018-07-02T10:42:44.401Z,23.48
2018-07-02T10:45:12.949Z,23.59
2018-07-02T10:47:41.526Z,23.65
2018-07-02T10:50:10.832Z,23.82
2018-07-02T10:52:39.504Z,24.02
2018-07-02T10:55:08.658Z,24.21
2018-07-02T10:57:38.215Z,24.21
2018-07-02T11:00:06.847Z,24.18
2018-07-02T11:02:35.405Z,24.23
2018-07-02T11:05:04.066Z,24.08
2018-07-02T11:07:32.646Z,24.12
2018-07-02T11:10:01.221Z,24.34
2018-07-02T11:12:29.833Z,24.57
2018-07-02T11:14:58.426Z,24.47
2018-07-02T11:17:26.996Z,24.71
2018-07-02T11:19:55.600Z,24.88
2018-07-02T11:22:24.164Z,24.97
2018-07-02T11:24:52.772Z,25.14
2018-07-02T11:27:21.342Z,25.26
2018-07-02T11:29:49.923Z,25.35
2018-07-02T11:32:18.598Z,25.42
2018-07-02T11:34:47.187Z,25.59
2018-07-02T11:37:15.762Z,25.73
2018-07-02T11:39:44.345Z,25.78
2018-07-02T11:42:12.953Z,25.80
2018-07-02T11:44:41.510Z,25.85
2018-07-02T11:47:11.046Z,26.06
2018-07-02T11:49:39.700Z,26.27
2018-07-02T11:52:08.281Z,26.35
2018-07-02T11:54:36.847Z,26.34
2018-07-02T11:57:05.498Z,26.52
2018-07-02T11:59:34.048Z,26.58
2018-07-02T12:02:02.712Z,26.49
2018-07-02T12:04:31.268Z,26.80
2018-07-02T12:06:59.845Z,26.82
2018-07-02T12:09:29.245Z,26.93
2018-07-02T12:11:57.814Z,27.01
2018-07-02T12:14:26.411Z,27.13
2018-07-02T12:16:55.025Z,27.07
2018-07-02T12:19:23.593Z,27.04
2018-07-02T12:21:52.206Z,27.10
2018-07-02T12:24:20.849Z,27.12
2018-07-02T12:26:49.427Z,27.22
2018-07-02T12:29:18.034Z,27.40
2018-07-02T12:31:46.649Z,27.29
2018-07-02T12:34:15.213Z,27.30
2018-07-02T12:36:43.802Z,27.37
2018-07-02T12:39:13.961Z,27.46
2018-07-02T12:41:43.205Z,27.44
2018-07-02T12:44:13.368Z,27.68
2018-07-02T12:46:42.481Z,28.24
2018-07-02T12:49:11.407Z,28.64
2018-07-02T12:51:40.162Z,28.71
2018-07-02T12:54:08.852Z,29.08
2018-07-02T12:56:37.464Z,29.15
2018-07-02T12:59:06.062Z,28.92
2018-07-02T13:01:34.647Z,28.80
2018-07-02T13:04:03.233Z,28.92
2018-07-02T13:06:31.843Z,29.37
2018-07-02T13:09:00.500Z,29.26
2018-07-02T13:11:29.082Z,29.48
2018-07-02T13:13:57.679Z,29.75
2018-07-02T13:16:26.291Z,30.13
2018-07-02T13:18:54.885Z,29.70
2018-07-02T13:21:23.534Z,29.30
2018-07-02T13:23:52.158Z,29.40
2018-07-02T13:26:20.786Z,29.52
2018-07-02T13:28:49.352Z,29.88
2018-07-02T13:31:17.965Z,29.89
2018-07-02T13:33:46.547Z,29.81
2018-07-02T13:36:15.747Z,29.48
2018-07-02T13:38:44.304Z,28.94
2018-07-02T13:41:12.902Z,28.60
2018-07-02T13:43:41.497Z,28.85
2018-07-02T13:46:10.103Z,29.29
2018-07-02T13:48:38.700Z,29.80
2018-07-02T13:51:07.457Z,29.37
2018-07-02T13:53:36.043Z,29.26
2018-07-02T13:56:04.708Z,29.12
2018-07-02T13:58:33.273Z,29.10
2018-07-02T14:01:01.846Z,29.18
2018-07-02T14:03:30.425Z,29.34
2018-07-02T14:05:59.034Z,29.14
2018-07-02T14:08:27.657Z,29.77
2018-07-02T14:10:56.237Z,29.99
2018-07-02T14:13:24.913Z,30.26
2018-07-02T14:15:53.508Z,31.16
2018-07-02T14:18:22.164Z,31.66
2018-07-02T14:20:50.770Z,32.31
2018-07-02T14:23:19.344Z,33.21
2018-07-02T14:25:47.919Z,33.75
2018-07-02T14:28:16.922Z,34.75
2018-07-02T14:30:45.580Z,35.42
2018-07-02T14:33:14.229Z,36.45
2018-07-02T14:35:43.069Z,37.59
2018-07-02T14:38:11.678Z,38.35
2018-07-02T14:40:40.337Z,38.77
2018-07-02T14:43:08.995Z,39.30
2018-07-02T14:45:37.618Z,38.82
2018-07-02T14:48:06.286Z,39.16
2018-07-02T14:50:34.861Z,39.70
2018-07-02T14:53:03.477Z,40.23
2018-07-02T14:55:32.110Z,39.79
2018-07-02T14:58:03.633Z,39.74
2018-07-02T15:00:32.201Z,40.07
2018-07-02T15:03:00.805Z,39.95
2018-07-02T15:05:29.432Z,40.23
2018-07-02T15:07:58.055Z,40.43
2018-07-02T15:10:26.695Z,39.61
2018-07-02T15:12:55.265Z,38.83
2018-07-02T15:15:23.874Z,39.19
2018-07-02T15:17:52.473Z,39.56
2018-07-02T15:20:21.067Z,40.62
2018-07-02T15:22:49.658Z,40.90
2018-07-02T15:25:18.861Z,40.18
2018-07-02T15:27:47.485Z,40.44
2018-07-02T15:30:16.535Z,41.00
2018-07-02T15:32:45.116Z,41.25
2018-07-02T15:35:14.338Z,40.93
2018-07-02T15:37:42.954Z,40.91
2018-07-02T15:40:11.578Z,41.39
2018-07-02T15:42:40.857Z,40.87
2018-07-02T15:45:09.523Z,42.09
2018-07-02T15:47:38.124Z,42.92
2018-07-02T15:50:06.852Z,42.89
2018-07-02T15:52:35.495Z,42.85
2018-07-02T15:55:04.182Z,42.86
2018-07-02T15:57:32.816Z,43.54
2018-07-02T16:00:01.422Z,43.76
2018-07-02T16:02:30.561Z,43.69
2018-07-02T16:04:59.272Z,44.00
2018-07-02T16:07:27.988Z,44.89
2018-07-02T16:09:56.631Z,43.67
2018-07-02T16:12:25.281Z,43.21
2018-07-02T16:14:53.905Z,44.02
2018-07-02T16:17:22.589Z,42.05
2018-07-02T16:19:51.230Z,40.29
2018-07-02T16:22:20.710Z,40.83
2018-07-02T16:24:49.306Z,40.35
2018-07-02T16:27:18.161Z,40.72
2018-07-02T16:29:46.838Z,41.01
2018-07-02T16:32:15.445Z,41.51
2018-07-02T16:34:44.085Z,41.19
2018-07-02T16:37:12.699Z,41.30
2018-07-02T16:39:41.358Z,42.24
2018-07-02T16:42:09.998Z,42.75
2018-07-02T16:44:38.633Z,42.94
2018-07-02T16:47:07.250Z,43.05
2018-07-02T16:49:35.889Z,43.24
2018-07-02T16:52:04.615Z,41.96
2018-07-02T16:54:33.208Z,41.69
2018-07-02T16:57:01.850Z,41.22
2018-07-02T16:59:30.506Z,41.05
2018-07-02T17:02:00.400Z,40.76
2018-07-02T17:04:29.099Z,40.63
2018-07-02T17:06:57.729Z,41.13
2018-07-02T17:09:26.314Z,41.95
2018-07-02T17:11:54.925Z,41.66
2018-07-02T17:14:23.553Z,41.41
2018-07-02T17:16:52.222Z,40.77
2018-07-02T17:19:21.397Z,40.79
2018-07-02T17:21:49.966Z,41.31
2018-07-02T17:24:19.423Z,40.58
2018-07-02T17:26:48.036Z,40.34
2018-07-02T17:29:18.145Z,40.28
2018-07-02T17:31:46.943Z,40.10
2018-07-02T17:34:15.560Z,40.28
2018-07-02T17:36:44.150Z,40.41
2018-07-02T17:39:12.776Z,40.31
2018-07-02T17:41:41.555Z,39.72
2018-07-02T17:44:10.148Z,39.64
2018-07-02T17:46:38.745Z,39.10
2018-07-02T17:49:07.396Z,37.90
2018-07-02T17:51:36.395Z,36.39
2018-07-02T17:54:05.168Z,36.02
2018-07-02T17:56:33.793Z,35.59
2018-07-02T17:59:02.428Z,35.47
2018-07-02T18:01:31.057Z,35.29
2018-07-02T18:03:59.702Z,34.43
2018-07-02T18:06:28.316Z,33.49
2018-07-02T18:08:56.927Z,32.04
2018-07-02T18:11:25.562Z,30.53
2018-07-02T18:13:54.156Z,29.27
2018-07-02T18:16:23.592Z,28.41
2018-07-02T18:18:52.207Z,27.77
2018-07-02T18:21:20.842Z,27.15
2018-07-02T18:23:49.508Z,26.24
2018-07-02T18:26:18.177Z,25.72
2018-07-02T18:28:46.818Z,25.32
2018-07-02T18:31:15.454Z,24.85
2018-07-02T18:33:44.089Z,24.61
2018-07-02T18:36:12.721Z,24.35
2018-07-02T18:38:41.515Z,24.15
2018-07-02T18:41:10.153Z,23.91
2018-07-02T18:43:38.796Z,23.70
2018-07-02T18:46:09.559Z,23.41
2018-07-02T18:48:38.188Z,23.14
2018-07-02T18:51:06.933Z,22.88
2018-07-02T18:53:35.621Z,22.65
2018-07-02T18:56:04.286Z,22.45
2018-07-02T18:58:33.085Z,22.28
2018-07-02T19:01:01.735Z,22.05
2018-07-02T19:03:30.375Z,21.91
2018-07-02T19:05:59.031Z,21.69
2018-07-02T19:08:27.686Z,21.55
2018-07-02T19:10:56.248Z,21.38
2018-07-02T19:13:24.849Z,21.32
2018-07-02T19:15:53.485Z,21.25
2018-07-02T19:18:22.702Z,21.07
2018-07-02T19:20:51.386Z,20.92
2018-07-02T19:23:20.011Z,20.77
2018-07-02T19:25:48.610Z,20.66
2018-07-02T19:28:17.216Z,20.58
2018-07-02T19:30:45.847Z,20.58
2018-07-02T19:33:14.449Z,20.56
2018-07-02T19:35:43.077Z,20.46
2018-07-02T19:38:11.736Z,20.48
2018-07-02T19:40:40.360Z,20.40
2018-07-02T19:43:09.013Z,20.47
2018-07-02T19:45:37.792Z,20.34
2018-07-02T19:48:06.443Z,20.27
2018-07-02T19:50:35.165Z,20.14
2018-07-02T19:53:03.801Z,20.02
2018-07-02T19:55:32.386Z,19.98
2018-07-02T19:58:01.036Z,19.95
2018-07-02T20:00:29.694Z,19.88
2018-07-02T20:02:58.322Z,19.72
2018-07-02T20:05:26.941Z,19.59
2018-07-02T20:07:56.050Z,19.50
2018-07-02T20:10:25.559Z,19.46
2018-07-02T20:12:54.291Z,19.38
2018-07-02T20:15:23.964Z,19.32
2018-07-02T20:17:52.629Z,19.22
2018-07-02T20:20:21.242Z,19.20
2018-07-02T20:22:49.900Z,19.15
2018-07-02T20:25:18.593Z,19.03
2018-07-02T20:27:47.220Z,18.85
2018-07-02T20:30:15.901Z,18.67
2018-07-02T20:32:44.607Z,18.51
2018-07-02T20:35:14.010Z,18.37
2018-07-02T20:37:42.690Z,18.24
2018-07-02T20:40:11.430Z,18.13
2018-07-02T20:42:40.205Z,18.01
2018-07-02T20:45:09.273Z,17.98
2018-07-02T20:47:37.909Z,17.99
2018-07-02T20:50:06.702Z,17.96
2018-07-02T20:52:35.438Z,17.92
2018-07-02T20:55:04.684Z,17.85
2018-07-02T20:57:33.397Z,17.82
2018-07-02T21:00:02.468Z,17.76
2018-07-02T21:02:31.116Z,17.67
2018-07-02T21:04:59.795Z,17.63
2018-07-02T21:07:28.423Z,17.56
2018-07-02T21:09:57.101Z,17.57
2018-07-02T21:12:26.706Z,17.49
2018-07-02T21:14:55.337Z,17.47
2018-07-02T21:17:24.560Z,17.45
2018-07-02T21:19:53.195Z,17.45
2018-07-02T21:22:21.887Z,17.46
2018-07-02T21:24:50.682Z,17.45
2018-07-02T21:27:19.337Z,17.45
2018-07-02T21:29:47.986Z,17.33
2018-07-02T21:32:16.646Z,17.25
2018-07-02T21:34:45.263Z,17.24
2018-07-02T21:37:13.910Z,17.24
2018-07-02T21:39:42.534Z,17.45
2018-07-02T21:42:11.156Z,17.50
2018-07-02T21:44:39.833Z,17.42
2018-07-02T21:47:08.611Z,17.33
2018-07-02T21:49:37.207Z,17.25
2018-07-02T21:52:05.887Z,17.12
2018-07-02T21:54:34.487Z,17.02
2018-07-02T21:57:03.090Z,16.90
2018-07-02T21:59:31.693Z,16.81
2018-07-02T22:02:01.011Z,16.76
2018-07-02T22:04:29.621Z,16.85
2018-07-02T22:06:58.366Z,16.91
2018-07-02T22:09:27.906Z,16.91
2018-07-02T22:11:56.649Z,16.95
2018-07-02T22:14:26.032Z,16.90
2018-07-02T22:16:54.593Z,16.85
2018-07-02T22:19:23.185Z,16.83
2018-07-02T22:21:51.777Z,16.74
2018-07-02T22:24:20.356Z,16.73
2018-07-02T22:26:48.954Z,16.82
2018-07-02T22:31:45.174Z,16.76
2018-07-02T22:34:14.313Z,16.70
2018-07-02T22:36:43.495Z,16.63
2018-07-02T22:39:12.173Z,16.68
2018-07-02T22:41:40.762Z,16.66
2018-07-02T22:44:09.934Z,16.68
2018-07-02T22:46:38.596Z,16.63
2018-07-02T22:49:07.478Z,16.55
2018-07-02T22:51:36.088Z,16.52
2018-07-02T22:54:04.713Z,16.47
2018-07-02T22:56:33.282Z,16.40
2018-07-02T22:59:01.825Z,16.41
2018-07-02T23:01:31.123Z,16.37
2018-07-02T23:04:00.329Z,16.37
2018-07-02T23:06:29.821Z,16.31
2018-07-02T23:08:58.423Z,16.26
2018-07-02T23:11:27.025Z,16.20
2018-07-02T23:13:55.557Z,16.21
2018-07-02T23:16:24.145Z,16.23
2018-07-02T23:18:52.696Z,16.25
2018-07-02T23:21:21.261Z,16.26
2018-07-02T23:23:49.827Z,16.20
2018-07-02T23:26:18.399Z,16.15
2018-07-02T23:28:46.973Z,16.07
2018-07-02T23:31:15.538Z,15.97
2018-07-02T23:33:44.106Z,15.91
2018-07-02T23:36:12.694Z,15.85
2018-07-02T23:38:41.277Z,15.79
2018-07-02T23:41:09.886Z,15.74
2018-07-02T23:43:43.984Z,15.65
2018-07-02T23:46:12.599Z,15.54
2018-07-02T23:48:41.166Z,15.48
2018-07-02T23:51:14.915Z,15.43
2018-07-02T23:53:43.464Z,15.37
2018-07-02T23:56:12.034Z,15.31
2018-07-02T23:58:40.606Z,15.25
